createdAt,value
2022-09-15T00:01:26.238Z,0.13
2022-09-15T00:04:01.304Z,0.38
2022-09-15T00:06:30.896Z,0.10
2022-09-15T00:08:59.279Z,0.30
2022-09-15T00:11:28.612Z,0.20
2022-09-15T00:13:57.366Z,0.20
2022-09-15T00:16:26.562Z,0.40
2022-09-15T00:18:54.930Z,0.38
2022-09-15T00:21:31.385Z,0.15
2022-09-15T00:24:01.431Z,0.30
2022-09-15T00:26:30.342Z,0.30
2022-09-15T00:28:59.101Z,0.47
2022-09-15T00:31:28.532Z,0.40
2022-09-15T00:33:58.124Z,0.30
2022-09-15T00:36:26.772Z,0.30
2022-09-15T00:38:56.552Z,0.20
2022-09-15T00:41:25.143Z,0.50
2022-09-15T00:43:54.658Z,0.40
2022-09-15T00:46:24.941Z,0.30
2022-09-15T00:48:57.463Z,0.35
2022-09-15T00:51:30.251Z,0.20
2022-09-15T00:54:00.254Z,0.47
2022-09-15T00:56:28.484Z,0.40
2022-09-15T00:58:59.390Z,0.40
2022-09-15T01:01:27.960Z,0.40
2022-09-15T01:03:56.282Z,0.40
2022-09-15T01:06:27.673Z,0.60
2022-09-15T01:09:02.144Z,0.40
2022-09-15T01:11:30.373Z,0.30
2022-09-15T01:13:58.642Z,0.43
2022-09-15T01:16:31.750Z,0.32
2022-09-15T01:19:06.603Z,0.43
2022-09-15T01:21:38.670Z,0.38
2022-09-15T01:24:43.960Z,0.43
2022-09-15T01:27:42.684Z,0.52
2022-09-15T01:30:14.311Z,0.50
2022-09-15T01:33:05.368Z,0.50
2022-09-15T01:35:45.838Z,0.47
2022-09-15T01:38:16.823Z,0.30
2022-09-15T01:40:47.734Z,0.60
2022-09-15T01:43:16.837Z,0.50
2022-09-15T01:45:46.522Z,0.60
2022-09-15T01:48:14.853Z,0.55
2022-09-15T01:50:44.379Z,0.52
2022-09-15T01:53:14.175Z,0.52
2022-09-15T01:55:43.922Z,0.32
2022-09-15T01:58:15.155Z,0.50
2022-09-15T02:00:46.828Z,0.60
2022-09-15T02:03:18.161Z,0.50
2022-09-15T02:05:48.091Z,0.50
2022-09-15T02:08:25.195Z,0.40
2022-09-15T02:10:58.822Z,0.50
2022-09-15T02:13:32.666Z,0.40
2022-09-15T02:16:02.641Z,0.30
2022-09-15T02:18:32.722Z,0.70
2022-09-15T02:21:09.201Z,0.52
2022-09-15T02:23:40.427Z,0.65
2022-09-15T02:26:12.735Z,0.50
2022-09-15T02:28:41.316Z,0.45
2022-09-15T02:31:12.320Z,0.50
2022-09-15T02:33:44.150Z,0.68
2022-09-15T02:36:12.432Z,0.40
2022-09-15T02:38:45.578Z,0.30
2022-09-15T02:41:14.175Z,0.40
2022-09-15T02:43:45.944Z,0.73
2022-09-15T02:46:16.047Z,0.32
2022-09-15T02:48:44.341Z,0.30
2022-09-15T02:51:12.578Z,0.60
2022-09-15T02:53:41.101Z,0.30
2022-09-15T02:56:09.387Z,0.50
2022-09-15T02:58:37.632Z,0.30
2022-09-15T03:01:06.243Z,0.25
2022-09-15T03:03:37.920Z,0.52
2022-09-15T03:06:18.451Z,0.50
2022-09-15T03:08:49.137Z,0.30
2022-09-15T03:11:17.832Z,0.45
2022-09-15T03:13:46.261Z,0.35
2022-09-15T03:16:16.921Z,0.43
2022-09-15T03:18:46.714Z,0.50
2022-09-15T03:21:15.386Z,0.22
2022-09-15T03:23:43.858Z,0.20
2022-09-15T03:26:12.098Z,0.35
2022-09-15T03:28:40.406Z,0.40
2022-09-15T03:31:10.014Z,0.40
2022-09-15T03:33:38.463Z,0.40
2022-09-15T03:36:08.954Z,0.50
2022-09-15T03:38:37.260Z,0.50
2022-09-15T03:41:06.426Z,0.50
2022-09-15T03:43:35.014Z,0.40
2022-09-15T03:46:03.512Z,0.40
2022-09-15T03:48:32.273Z,0.50
2022-09-15T03:51:00.486Z,0.30
2022-09-15T03:53:34.816Z,0.40
2022-09-15T03:56:15.509Z,0.30
2022-09-15T03:58:43.783Z,0.40
2022-09-15T04:01:12.547Z,0.35
2022-09-15T04:03:46.451Z,0.40
2022-09-15T04:06:17.604Z,0.35
2022-09-15T04:08:47.211Z,0.50
2022-09-15T04:11:15.561Z,0.38
2022-09-15T04:13:44.271Z,0.50
2022-09-15T04:16:13.707Z,0.32
2022-09-15T04:18:42.095Z,0.40
2022-09-15T04:21:13.542Z,0.35
2022-09-15T04:23:42.033Z,0.40
2022-09-15T04:26:14.370Z,0.50
2022-09-15T04:28:42.601Z,0.30
2022-09-15T04:31:12.223Z,0.40
2022-09-15T04:33:41.043Z,0.25
2022-09-15T04:36:10.341Z,0.30
2022-09-15T04:38:38.697Z,0.40
2022-09-15T04:41:07.084Z,0.40
2022-09-15T04:43:39.559Z,0.20
2022-09-15T04:46:08.027Z,0.30
2022-09-15T04:48:37.683Z,0.40
2022-09-15T04:51:07.317Z,0.40
2022-09-15T04:53:36.089Z,0.40
2022-09-15T04:56:05.539Z,0.50
2022-09-15T04:58:37.262Z,0.30
2022-09-15T05:01:10.401Z,0.25
2022-09-15T05:03:38.963Z,0.40
2022-09-15T05:06:08.822Z,0.40
2022-09-15T05:08:37.157Z,0.38
2022-09-15T05:11:06.546Z,0.28
2022-09-15T05:13:35.010Z,0.35
2022-09-15T05:16:07.168Z,0.30
2022-09-15T05:18:36.850Z,0.25
2022-09-15T05:21:05.832Z,0.40
2022-09-15T05:23:34.786Z,0.40
2022-09-15T05:26:03.881Z,0.30
2022-09-15T05:28:35.154Z,0.40
2022-09-15T05:31:04.227Z,0.40
2022-09-15T05:33:33.276Z,0.50
2022-09-15T05:36:03.318Z,0.40
2022-09-15T05:38:32.525Z,0.73
2022-09-15T05:41:03.695Z,0.50
2022-09-15T05:43:32.210Z,0.50
2022-09-15T05:46:00.495Z,0.47
2022-09-15T05:48:28.774Z,0.43
2022-09-15T05:50:57.190Z,0.35
2022-09-15T05:53:27.238Z,0.63
2022-09-15T05:55:56.127Z,0.52
2022-09-15T05:58:24.483Z,0.77
2022-09-15T06:00:53.227Z,0.63
2022-09-15T06:03:21.668Z,0.80
2022-09-15T06:05:49.973Z,0.57
2022-09-15T06:08:18.240Z,0.50
2022-09-15T06:10:48.233Z,0.50
2022-09-15T06:13:16.474Z,0.57
2022-09-15T06:15:44.910Z,0.73
2022-09-15T06:18:13.691Z,0.60
2022-09-15T06:20:42.319Z,0.55
2022-09-15T06:23:10.579Z,0.40
2022-09-15T06:25:38.814Z,0.50
2022-09-15T06:28:08.609Z,0.40
2022-09-15T06:30:39.554Z,0.47
2022-09-15T06:33:07.853Z,0.63
2022-09-15T06:35:36.086Z,0.45
2022-09-15T06:38:04.330Z,0.73
2022-09-15T06:40:32.662Z,0.50
2022-09-15T06:43:00.970Z,0.50
2022-09-15T06:45:30.665Z,0.40
2022-09-15T06:48:22.914Z,0.30
2022-09-15T06:50:54.859Z,0.73
2022-09-15T06:53:23.171Z,0.40
2022-09-15T06:55:51.510Z,0.35
2022-09-15T06:58:19.760Z,0.50
2022-09-15T07:00:49.620Z,0.30
2022-09-15T07:03:18.097Z,0.50
2022-09-15T07:05:47.353Z,0.50
2022-09-15T07:08:15.597Z,0.50
2022-09-15T07:10:45.117Z,0.50
2022-09-15T07:13:13.349Z,0.40
2022-09-15T07:15:41.663Z,0.60
2022-09-15T07:18:11.257Z,1.88
2022-09-15T07:20:43.043Z,0.90
2022-09-15T07:23:11.276Z,2.33
2022-09-15T07:25:44.883Z,2.50
2022-09-15T07:28:13.153Z,2.90
2022-09-15T07:30:41.458Z,2.75
2022-09-15T07:33:12.997Z,2.58
2022-09-15T07:35:42.504Z,2.25
2022-09-15T07:38:13.374Z,2.58
2022-09-15T07:40:41.657Z,2.20
2022-09-15T07:43:10.911Z,2.33
2022-09-15T07:45:39.759Z,1.92
2022-09-15T07:48:08.039Z,2.72
2022-09-15T07:50:37.668Z,2.40
2022-09-15T07:53:08.706Z,2.55
2022-09-15T07:55:39.798Z,2.00
2022-09-15T07:58:08.032Z,2.20
2022-09-15T08:00:37.661Z,2.78
2022-09-15T08:03:12.406Z,2.13
2022-09-15T08:05:45.867Z,2.50
2022-09-15T08:08:14.348Z,2.08
2022-09-15T08:10:42.763Z,1.95
2022-09-15T08:13:11.039Z,2.35
2022-09-15T08:15:39.466Z,2.42
2022-09-15T08:18:07.814Z,1.90
2022-09-15T08:20:38.777Z,1.80
2022-09-15T08:23:08.439Z,1.75
2022-09-15T08:25:36.703Z,1.90
2022-09-15T08:28:05.042Z,1.80
2022-09-15T08:30:33.367Z,1.75
2022-09-15T08:33:01.617Z,1.65
2022-09-15T08:35:32.047Z,1.50
2022-09-15T08:38:00.293Z,1.60
2022-09-15T08:40:31.701Z,1.50
2022-09-15T08:43:01.058Z,1.50
2022-09-15T08:45:30.349Z,1.33
2022-09-15T08:48:00.053Z,1.58
2022-09-15T08:50:29.777Z,1.20
2022-09-15T08:53:01.084Z,1.40
2022-09-15T08:55:36.502Z,1.33
2022-09-15T08:58:07.174Z,1.20
2022-09-15T09:00:35.407Z,1.55
2022-09-15T09:03:29.430Z,1.45
2022-09-15T09:05:59.481Z,1.40
2022-09-15T09:08:53.142Z,1.33
2022-09-15T09:11:27.080Z,1.13
2022-09-15T09:13:58.123Z,1.02
2022-09-15T09:16:40.319Z,1.35
2022-09-15T09:19:35.810Z,1.10
2022-09-15T09:22:06.586Z,0.98
2022-09-15T09:24:37.038Z,1.00
2022-09-15T09:27:06.731Z,0.60
2022-09-15T09:29:36.102Z,0.60
2022-09-15T09:32:04.629Z,0.63
2022-09-15T09:34:35.339Z,0.80
2022-09-15T09:37:10.424Z,0.38
2022-09-15T09:39:38.683Z,0.50
2022-09-15T09:42:09.103Z,0.57
2022-09-15T09:44:42.717Z,0.60
2022-09-15T09:47:12.279Z,0.30
2022-09-15T09:49:42.458Z,0.50
2022-09-15T09:52:12.653Z,0.50
2022-09-15T09:54:42.208Z,0.50
2022-09-15T09:57:32.619Z,0.50
2022-09-15T10:00:00.840Z,0.50
2022-09-15T10:02:29.209Z,0.30
2022-09-15T10:05:18.076Z,0.40
2022-09-15T10:07:46.362Z,0.30
2022-09-15T10:10:23.189Z,0.63
2022-09-15T10:12:56.315Z,0.30
2022-09-15T10:15:25.355Z,0.45
2022-09-15T10:17:54.053Z,0.30
2022-09-15T10:20:32.470Z,0.45
2022-09-15T10:23:05.059Z,0.40
2022-09-15T10:25:49.665Z,0.50
2022-09-15T10:28:25.763Z,1.00
2022-09-15T10:31:03.356Z,0.50
2022-09-15T10:33:32.467Z,0.65
2022-09-15T10:36:06.015Z,0.60
2022-09-15T10:38:39.460Z,0.65
2022-09-15T10:41:19.542Z,0.70
2022-09-15T10:43:56.916Z,0.60
2022-09-15T10:46:28.050Z,0.50
2022-09-15T10:49:02.932Z,0.50
2022-09-15T10:51:38.113Z,0.38
2022-09-15T10:54:25.638Z,0.40
2022-09-15T10:56:57.605Z,0.40
2022-09-15T10:59:39.580Z,0.50
2022-09-15T11:02:25.245Z,0.73
2022-09-15T11:05:22.595Z,0.68
2022-09-15T11:07:57.096Z,0.45
2022-09-15T11:10:39.041Z,0.50
2022-09-15T11:13:12.677Z,0.45
2022-09-15T11:15:54.752Z,0.47
2022-09-15T11:18:43.627Z,0.50
2022-09-15T11:21:23.265Z,0.50
2022-09-15T11:23:55.451Z,0.35
2022-09-15T11:26:27.098Z,0.57
2022-09-15T11:28:57.423Z,0.30
2022-09-15T11:31:28.166Z,0.30
2022-09-15T11:33:59.259Z,0.38
2022-09-15T11:36:31.243Z,0.50
2022-09-15T11:39:04.264Z,0.50
2022-09-15T11:41:35.404Z,0.30
2022-09-15T11:44:08.531Z,0.32
2022-09-15T11:46:49.211Z,0.38
2022-09-15T11:49:19.644Z,0.30
2022-09-15T11:51:53.336Z,0.40
2022-09-15T11:54:23.853Z,0.40
2022-09-15T11:56:52.215Z,0.32
2022-09-15T11:59:25.805Z,0.32
2022-09-15T12:01:59.118Z,0.63
2022-09-15T12:04:29.361Z,0.17
2022-09-15T12:09:29.139Z,0.30
2022-09-15T12:11:58.692Z,0.32
2022-09-15T12:14:29.731Z,0.20
2022-09-15T12:16:59.323Z,0.50
2022-09-15T12:19:42.057Z,0.20
2022-09-15T12:22:13.430Z,0.47
2022-09-15T12:24:45.850Z,0.47
2022-09-15T12:27:16.368Z,0.22
2022-09-15T12:29:49.340Z,0.25
2022-09-15T12:32:24.079Z,0.32
2022-09-15T12:35:03.508Z,0.30
2022-09-15T12:37:37.033Z,0.40
2022-09-15T12:40:07.946Z,0.25
2022-09-15T12:42:37.063Z,0.40
2022-09-15T12:45:06.710Z,0.20
2022-09-15T12:47:38.246Z,0.30
2022-09-15T12:50:23.452Z,0.47
2022-09-15T12:52:55.032Z,0.13
2022-09-15T12:55:24.379Z,0.30
2022-09-15T12:57:57.029Z,0.30
2022-09-15T13:00:29.824Z,0.32
2022-09-15T13:03:00.349Z,0.30
2022-09-15T13:05:55.247Z,0.30
2022-09-15T13:08:46.128Z,0.30
2022-09-15T13:11:16.146Z,0.40
2022-09-15T13:13:47.326Z,0.15
2022-09-15T13:16:16.518Z,0.30
2022-09-15T13:18:46.551Z,0.22
2022-09-15T13:21:16.781Z,0.20
2022-09-15T13:23:45.885Z,0.30
2022-09-15T13:26:24.011Z,0.40
2022-09-15T13:28:57.844Z,0.22
2022-09-15T13:31:34.478Z,0.25
2022-09-15T13:40:41.559Z,0.25
2022-09-15T13:43:23.405Z,0.35
2022-09-15T13:45:54.957Z,0.30
2022-09-15T13:48:40.725Z,0.52
2022-09-15T13:51:14.312Z,0.30
2022-09-15T13:53:48.673Z,0.45
2022-09-15T13:56:20.232Z,1.20
2022-09-15T13:59:01.829Z,4.03
2022-09-15T14:01:40.149Z,8.85
2022-09-15T14:04:10.547Z,9.35
2022-09-15T14:06:40.978Z,4.85
2022-09-15T14:09:13.590Z,4.43
2022-09-15T14:11:41.999Z,4.15
2022-09-15T14:14:12.273Z,4.00
2022-09-15T14:16:40.904Z,3.83
2022-09-15T14:19:33.363Z,3.45
2022-09-15T14:22:19.281Z,3.00
2022-09-15T14:24:47.874Z,2.63
2022-09-15T14:27:23.829Z,2.63
2022-09-15T14:29:55.126Z,2.65
2022-09-15T14:32:23.351Z,2.45
2022-09-15T14:34:51.799Z,2.60
2022-09-15T14:37:23.851Z,2.00
2022-09-15T14:39:56.440Z,2.13
2022-09-15T14:42:30.346Z,2.50
2022-09-15T14:48:01.229Z,2.20
2022-09-15T14:50:32.838Z,1.92
2022-09-15T14:53:08.017Z,1.10
2022-09-15T14:55:37.799Z,1.33
2022-09-15T14:58:07.218Z,1.70
2022-09-15T15:00:38.447Z,1.33
2022-09-15T15:03:18.242Z,1.20
2022-09-15T15:05:47.733Z,1.48
2022-09-15T15:08:23.190Z,0.82
2022-09-15T15:10:51.425Z,1.00
2022-09-15T15:13:19.665Z,0.98
2022-09-15T15:15:47.974Z,1.02
2022-09-15T15:18:31.804Z,1.00
2022-09-15T15:21:00.452Z,0.73
2022-09-15T15:23:30.184Z,0.98
2022-09-15T15:26:25.567Z,0.90
2022-09-15T15:28:53.806Z,0.63
2022-09-15T15:31:22.573Z,1.00
2022-09-15T15:33:53.079Z,1.00
2022-09-15T15:36:22.127Z,1.05
2022-09-15T15:38:53.076Z,0.82
2022-09-15T15:41:22.613Z,0.80
2022-09-15T15:44:03.234Z,0.82
2022-09-15T15:46:49.061Z,0.57
2022-09-15T15:49:21.537Z,0.50
2022-09-15T15:51:50.151Z,0.50
2022-09-15T15:54:19.758Z,0.85
2022-09-15T15:56:48.035Z,0.80
2022-09-15T15:59:16.362Z,0.80
2022-09-15T16:01:44.798Z,0.60
2022-09-15T16:04:13.149Z,0.52
2022-09-15T16:06:41.509Z,1.48
2022-09-15T16:09:10.628Z,2.00
2022-09-15T16:11:43.553Z,2.08
2022-09-15T16:14:13.346Z,1.65
2022-09-15T16:16:44.858Z,1.73
2022-09-15T16:19:15.078Z,2.08
2022-09-15T16:21:43.727Z,1.17
2022-09-15T16:24:13.479Z,0.88
2022-09-15T16:26:43.165Z,1.30
2022-09-15T16:29:14.489Z,1.65
2022-09-15T16:31:43.493Z,1.30
2022-09-15T16:34:13.542Z,1.40
2022-09-15T16:36:41.777Z,1.02
2022-09-15T16:39:12.446Z,1.42
2022-09-15T16:41:40.685Z,1.05
2022-09-15T16:44:17.507Z,0.70
2022-09-15T16:46:45.813Z,1.00
2022-09-15T16:49:14.382Z,1.00
2022-09-15T16:51:42.639Z,1.25
2022-09-15T16:54:15.272Z,0.98
2022-09-15T16:56:43.577Z,0.70
2022-09-15T16:59:13.180Z,1.05
2022-09-15T17:01:44.298Z,0.70
2022-09-15T17:04:20.222Z,1.10
2022-09-15T17:06:50.094Z,0.70
2022-09-15T17:09:18.335Z,0.77
2022-09-15T17:11:46.593Z,0.88
2022-09-15T17:14:18.482Z,0.85
2022-09-15T17:16:47.293Z,0.57
2022-09-15T17:19:15.673Z,0.82
2022-09-15T17:21:43.922Z,0.73
2022-09-15T17:24:12.162Z,0.85
2022-09-15T17:26:40.682Z,0.75
2022-09-15T17:29:08.938Z,0.82
2022-09-15T17:31:38.670Z,0.77
2022-09-15T17:34:09.962Z,0.50
2022-09-15T17:36:38.367Z,0.55
2022-09-15T17:39:06.611Z,0.50
2022-09-15T17:41:35.879Z,0.70
2022-09-15T17:44:09.922Z,0.95
2022-09-15T17:46:39.736Z,0.65
2022-09-15T17:49:08.093Z,0.88
2022-09-15T17:51:36.363Z,0.52
2022-09-15T17:54:08.986Z,0.40
2022-09-15T17:56:37.218Z,0.50
2022-09-15T17:59:05.606Z,0.57
2022-09-15T18:01:34.008Z,0.40
2022-09-15T18:04:04.131Z,0.57
2022-09-15T18:06:32.342Z,0.30
2022-09-15T18:09:00.714Z,0.40
2022-09-15T18:11:29.387Z,0.50
2022-09-15T18:13:58.373Z,0.52
2022-09-15T18:16:26.624Z,0.50
2022-09-15T18:18:54.939Z,0.68
2022-09-15T18:21:25.747Z,0.45
2022-09-15T18:23:54.703Z,0.40
2022-09-15T18:26:26.226Z,0.50
2022-09-15T18:28:56.882Z,0.60
2022-09-15T18:31:25.203Z,0.57
2022-09-15T18:33:53.531Z,0.40
2022-09-15T18:36:21.861Z,0.40
2022-09-15T18:38:51.482Z,0.35
2022-09-15T18:41:19.734Z,0.40
2022-09-15T18:43:48.975Z,0.60
2022-09-15T18:46:17.509Z,0.68
2022-09-15T18:48:45.928Z,0.60
2022-09-15T18:51:23.708Z,0.40
2022-09-15T18:53:58.627Z,0.40
2022-09-15T18:56:26.865Z,0.40
2022-09-15T18:58:55.178Z,0.40
2022-09-15T19:01:24.056Z,0.43
2022-09-15T19:03:52.441Z,0.50
2022-09-15T19:06:20.668Z,0.43
2022-09-15T19:08:48.893Z,0.40
2022-09-15T19:11:19.721Z,0.40
2022-09-15T19:13:47.954Z,0.40
2022-09-15T19:16:16.280Z,0.40
2022-09-15T19:18:46.160Z,0.50
2022-09-15T19:21:14.451Z,0.32
2022-09-15T19:23:42.794Z,0.40
2022-09-15T19:26:13.485Z,0.30
2022-09-15T19:28:43.547Z,0.47
2022-09-15T19:31:12.650Z,0.43
2022-09-15T19:33:41.051Z,0.28
2022-09-15T19:36:27.471Z,0.50
2022-09-15T19:38:56.504Z,0.40
2022-09-15T19:41:24.763Z,0.38
2022-09-15T19:43:54.563Z,0.40
2022-09-15T19:46:24.483Z,0.30
2022-09-15T19:48:53.309Z,0.40
2022-09-15T19:51:21.698Z,0.50
2022-09-15T19:53:49.944Z,0.32
2022-09-15T19:56:19.695Z,0.50
2022-09-15T19:58:47.931Z,0.30
2022-09-15T20:01:18.106Z,0.50
2022-09-15T20:03:46.450Z,0.43
2022-09-15T20:06:14.693Z,0.40
2022-09-15T20:08:45.467Z,0.28
2022-09-15T20:11:14.172Z,0.20
2022-09-15T20:13:43.821Z,0.57
2022-09-15T20:16:12.799Z,0.30
2022-09-15T20:18:42.941Z,0.32
2022-09-15T20:21:21.729Z,0.30
2022-09-15T20:23:55.986Z,0.30
2022-09-15T20:26:24.303Z,0.22
2022-09-15T20:28:52.659Z,0.68
2022-09-15T20:31:21.840Z,0.35
2022-09-15T20:33:51.752Z,0.43
2022-09-15T20:36:21.254Z,0.57
2022-09-15T20:38:49.700Z,0.30
2022-09-15T20:41:18.797Z,0.30
2022-09-15T20:43:47.036Z,0.35
2022-09-15T20:46:16.202Z,0.20
2022-09-15T20:48:47.603Z,0.20
2022-09-15T20:51:18.285Z,0.40
2022-09-15T20:53:47.348Z,0.38
2022-09-15T20:56:16.073Z,0.30
2022-09-15T20:58:44.414Z,0.20
2022-09-15T21:01:13.846Z,0.35
2022-09-15T21:03:42.829Z,0.28
2022-09-15T21:06:12.777Z,0.30
2022-09-15T21:08:42.451Z,0.30
2022-09-15T21:11:13.838Z,0.40
2022-09-15T21:13:43.275Z,0.40
2022-09-15T21:16:12.421Z,0.30
2022-09-15T21:18:40.911Z,0.28
2022-09-15T21:21:12.063Z,0.30
2022-09-15T21:23:42.653Z,0.35
2022-09-15T21:26:12.668Z,0.30
2022-09-15T21:28:41.216Z,0.30
2022-09-15T21:31:10.498Z,0.20
2022-09-15T21:33:39.278Z,0.30
2022-09-15T21:36:09.399Z,0.17
2022-09-15T21:38:38.221Z,0.90
2022-09-15T21:41:08.313Z,0.70
2022-09-15T21:43:37.257Z,0.70
2022-09-15T21:46:06.275Z,0.77
2022-09-15T21:48:35.814Z,0.80
2022-09-15T21:51:04.350Z,0.60
2022-09-15T21:53:32.597Z,0.60
2022-09-15T21:56:01.848Z,0.60
2022-09-15T21:58:38.940Z,0.73
2022-09-15T22:01:12.262Z,0.70
2022-09-15T22:03:42.403Z,0.60
2022-09-15T22:06:11.172Z,0.70
2022-09-15T22:08:39.655Z,0.70
2022-09-15T22:11:08.099Z,0.65
2022-09-15T22:13:38.606Z,0.60
2022-09-15T22:16:08.122Z,0.60
2022-09-15T22:18:36.922Z,0.50
2022-09-15T22:21:10.081Z,0.52
2022-09-15T22:23:39.973Z,0.60
2022-09-15T22:26:09.601Z,0.55
2022-09-15T22:28:39.465Z,0.40
2022-09-15T22:31:09.983Z,0.40
2022-09-15T22:33:39.452Z,0.80
2022-09-15T22:36:10.192Z,0.40
2022-09-15T22:38:38.668Z,0.30
2022-09-15T22:41:09.019Z,0.40
2022-09-15T22:43:39.004Z,0.43
2022-09-15T22:46:07.399Z,0.50
2022-09-15T22:48:38.585Z,0.38
2022-09-15T22:51:11.014Z,0.40
2022-09-15T22:53:39.442Z,0.38
2022-09-15T22:56:08.984Z,0.30
2022-09-15T22:58:38.849Z,0.70
2022-09-15T23:01:08.013Z,0.40
2022-09-15T23:03:36.403Z,0.47
2022-09-15T23:06:05.367Z,0.43
2022-09-15T23:08:33.728Z,0.38
2022-09-15T23:11:03.654Z,0.30
2022-09-15T23:13:31.899Z,0.40
2022-09-15T23:16:01.755Z,0.38
2022-09-15T23:18:30.264Z,0.40
2022-09-15T23:20:59.430Z,0.45
2022-09-15T23:23:28.062Z,0.40
2022-09-15T23:25:56.381Z,0.32
2022-09-15T23:28:24.903Z,0.55
2022-09-15T23:30:53.695Z,0.40
2022-09-15T23:33:23.623Z,0.70
2022-09-15T23:35:51.937Z,0.30
2022-09-15T23:38:20.653Z,0.45
2022-09-15T23:40:49.842Z,0.50
2022-09-15T23:43:18.097Z,0.40
2022-09-15T23:45:48.120Z,0.38
2022-09-15T23:48:16.384Z,0.22
2022-09-15T23:50:46.012Z,0.17
2022-09-15T23:53:14.284Z,0.25
2022-09-15T23:55:45.432Z,0.40
2022-09-15T23:58:13.938Z,0.38
